createdAt,value
2018-09-11T08:55:01.867Z,0
2018-09-11T08:55:07.381Z,0
2018-09-11T08:55:12.948Z,0
2018-09-11T08:55:18.510Z,0
2018-09-11T08:55:24.140Z,0
2018-09-11T08:55:29.701Z,0
2018-09-11T08:55:35.260Z,0
2018-09-11T08:55:40.789Z,0
2018-09-11T08:55:46.543Z,0
2018-09-11T08:55:52.028Z,0
2018-09-11T08:55:57.630Z,0
2018-09-11T08:56:03.189Z,0
2018-09-11T08:56:08.951Z,0
2018-09-11T08:56:14.502Z,0
2018-09-11T08:56:20.110Z,0
2018-09-11T08:56:25.757Z,0
2018-09-11T08:56:31.310Z,0
2018-09-11T08:56:36.875Z,0
2018-09-11T08:56:42.430Z,0
2018-09-11T08:56:47.993Z,0
2018-09-11T08:56:53.564Z,0
2018-09-11T08:56:59.109Z,0
2018-09-11T08:57:04.668Z,0
2018-09-11T08:57:10.220Z,0
2018-09-11T08:57:15.788Z,0
2018-09-11T08:57:33.079Z,2.7
2018-09-11T08:57:37.676Z,2.8
2018-09-11T08:57:42.235Z,4.1
2018-09-11T08:57:46.788Z,4.7
2018-09-11T08:57:51.388Z,5.2
2018-09-11T08:57:55.948Z,5.4
2018-09-11T08:58:00.500Z,5.4
2018-09-11T08:58:05.148Z,6
2018-09-11T08:58:09.700Z,6.2
2018-09-11T08:58:14.340Z,6.6
2018-09-11T08:58:18.989Z,6.3
2018-09-11T08:58:24.633Z,6
2018-09-11T08:58:29.292Z,6.2
2018-09-11T08:58:34.127Z,5.8
2018-09-11T08:58:38.730Z,5.5
2018-09-11T08:58:43.238Z,4.2
2018-09-11T08:58:47.860Z,4.3
2018-09-11T08:58:52.674Z,5.5
2018-09-11T08:58:57.221Z,5.1
2018-09-11T08:59:01.821Z,5.1
2018-09-11T08:59:06.515Z,4.7
2018-09-11T08:59:11.109Z,5.9
2018-09-11T08:59:15.670Z,6.1
2018-09-11T08:59:20.302Z,5.3
2018-09-11T08:59:24.948Z,5.1
2018-09-11T08:59:29.588Z,5.7
2018-09-11T08:59:34.152Z,6.3
2018-09-11T08:59:38.833Z,5.3
2018-09-11T08:59:43.517Z,5.1
2018-09-11T08:59:48.151Z,5.1
2018-09-11T08:59:52.742Z,4.8
2018-09-11T08:59:57.387Z,5.2
2018-09-11T09:00:01.951Z,4.8
2018-09-11T09:00:06.660Z,5.4
2018-09-11T09:00:11.193Z,5.3
2018-09-11T09:00:15.753Z,5.4
2018-09-11T09:00:20.268Z,5.2
2018-09-11T09:00:24.860Z,5.3
2018-09-11T09:00:29.468Z,4.8
2018-09-11T09:00:34.060Z,4.4
2018-09-11T09:00:38.680Z,4.8
2018-09-11T09:00:43.269Z,5.3
2018-09-11T09:00:47.879Z,5.8
2018-09-11T09:00:52.510Z,5.8
2018-09-11T09:00:57.139Z,5.8
2018-09-11T09:01:01.669Z,5.8
2018-09-11T09:01:06.230Z,5.9
2018-09-11T09:01:10.791Z,4.6
2018-09-11T09:01:15.390Z,3.7
2018-09-11T09:01:19.908Z,3.7
2018-09-11T09:01:24.548Z,4.1
2018-09-11T09:01:29.179Z,4.2
2018-09-11T09:01:33.781Z,5
2018-09-11T09:01:39.388Z,4.9
2018-09-11T09:01:43.988Z,4.9
2018-09-11T09:01:48.548Z,5
2018-09-11T09:01:53.112Z,4.9
2018-09-11T09:01:57.749Z,4
2018-09-11T09:02:02.275Z,3.5
2018-09-11T09:02:06.870Z,3.5
2018-09-11T09:02:11.403Z,2.9
2018-09-11T09:02:16.024Z,2.9
2018-09-11T09:02:20.580Z,3.3
2018-09-11T09:02:26.113Z,3.4
2018-09-11T09:02:30.629Z,4.4
2018-09-11T09:02:35.192Z,5
2018-09-11T09:02:39.741Z,5.1
2018-09-11T09:02:44.302Z,4.8
2018-09-11T09:02:48.835Z,4.9
2018-09-11T09:02:53.388Z,4.5
2018-09-11T09:02:57.950Z,5.1
2018-09-11T09:03:02.517Z,4.3
2018-09-11T09:03:07.140Z,4.1
2018-09-11T09:03:11.670Z,4.1
2018-09-11T09:03:16.192Z,4.4
2018-09-11T09:03:20.757Z,4.1
2018-09-11T09:03:25.350Z,4.9
2018-09-11T09:03:29.910Z,4.7
2018-09-11T09:03:34.508Z,4.8
2018-09-11T09:03:39.069Z,5.3
2018-09-11T09:03:43.588Z,5.1
2018-09-11T09:03:48.150Z,4.8
2018-09-11T09:03:52.700Z,4.3
2018-09-11T09:03:57.227Z,4.2
2018-09-11T09:04:01.752Z,3.9
2018-09-11T09:04:06.349Z,3.9
2018-09-11T09:04:10.868Z,4
2018-09-11T09:04:15.428Z,4.5
2018-09-11T09:04:19.991Z,5.4
2018-09-11T09:04:24.589Z,5.7
2018-09-11T09:04:29.139Z,5.4
2018-09-11T09:04:33.707Z,5
2018-09-11T09:04:38.316Z,4.6
2018-09-11T09:04:42.869Z,4.9
2018-09-11T09:04:47.509Z,4
2018-09-11T09:04:52.139Z,4
2018-09-11T09:04:56.781Z,3.9
2018-09-11T09:05:01.300Z,4.3
2018-09-11T09:05:05.911Z,4.4
2018-09-11T09:05:10.740Z,4.3
2018-09-11T09:05:15.348Z,4.7
2018-09-11T09:05:19.949Z,4.6
2018-09-11T09:05:24.509Z,4.3
2018-09-11T09:05:29.152Z,4.7
2018-09-11T09:05:33.748Z,5.2
2018-09-11T09:05:38.313Z,5.7
2018-09-11T09:05:43.036Z,5.4
2018-09-11T09:05:47.715Z,5.8
2018-09-11T09:05:52.499Z,5.8
2018-09-11T09:05:57.192Z,5.3
2018-09-11T09:06:01.790Z,5.1
2018-09-11T09:06:06.395Z,4.8
2018-09-11T09:06:10.951Z,4.3
2018-09-11T09:06:15.595Z,3.5
2018-09-11T09:06:20.181Z,3.4
2018-09-11T09:06:24.828Z,3.3
2018-09-11T09:06:29.388Z,3.8
2018-09-11T09:06:33.948Z,4.8
2018-09-11T09:06:38.508Z,5
2018-09-11T09:06:43.067Z,5.6
2018-09-11T09:06:47.659Z,5.5
2018-09-11T09:06:52.349Z,5.7
2018-09-11T09:06:56.924Z,5.4
2018-09-11T09:07:01.469Z,4.7
2018-09-11T09:07:06.072Z,4.6
2018-09-11T09:07:10.669Z,4.5
2018-09-11T09:07:15.309Z,4.6
2018-09-11T09:07:19.912Z,4.5
2018-09-11T09:07:24.459Z,4.4
2018-09-11T09:07:28.989Z,5.2
2018-09-11T09:07:33.582Z,4.5
2018-09-11T09:07:38.109Z,5
2018-09-11T09:07:42.708Z,3.8
2018-09-11T09:07:47.259Z,4.3
2018-09-11T09:07:51.749Z,4.6
2018-09-11T09:07:56.309Z,4.4
2018-09-11T09:08:00.860Z,4.1
2018-09-11T09:08:05.389Z,4.4
2018-09-11T09:08:09.951Z,4.3
2018-09-11T09:08:14.676Z,4.2
2018-09-11T09:08:19.237Z,4.4
2018-09-11T09:08:23.789Z,4.2
2018-09-11T09:08:28.348Z,3.9
2018-09-11T09:08:32.869Z,3.8
2018-09-11T09:08:37.459Z,3.6
2018-09-11T09:08:41.998Z,3.7
2018-09-11T09:08:46.539Z,3.8
2018-09-11T09:08:51.068Z,3
2018-09-11T09:08:55.589Z,3.3
2018-09-11T09:09:00.180Z,3.3
2018-09-11T09:09:04.749Z,4
2018-09-11T09:09:09.348Z,4.1
2018-09-11T09:09:13.900Z,4.5
2018-09-11T09:09:18.430Z,4.5
2018-09-11T09:09:23.028Z,4.7
2018-09-11T09:09:27.548Z,4.4
2018-09-11T09:09:32.260Z,4.5
2018-09-11T09:09:36.787Z,4.1
2018-09-11T09:09:41.341Z,3.7
2018-09-11T09:09:45.867Z,3.6
2018-09-11T09:09:50.388Z,6.3
2018-09-11T09:10:18.351Z,5.6
2018-09-11T09:10:22.907Z,3.6
2018-09-11T09:10:27.436Z,3.7
2018-09-11T09:10:32.060Z,4.1
2018-09-11T09:10:36.591Z,4.3
2018-09-11T09:10:41.220Z,4.2
2018-09-11T09:10:45.820Z,5.9
2018-09-11T09:10:50.347Z,5.8
2018-09-11T09:10:54.868Z,5.6
2018-09-11T09:10:59.547Z,6.4
2018-09-11T09:11:04.102Z,6
2018-09-11T09:11:08.759Z,5.9
2018-09-11T09:11:13.348Z,4
2018-09-11T09:11:17.950Z,4.2
2018-09-11T09:11:22.504Z,4.2
2018-09-11T09:11:27.061Z,4.3
2018-09-11T09:11:31.629Z,4
2018-09-11T09:11:36.188Z,4.5
2018-09-11T09:11:40.879Z,4.5
2018-09-11T09:11:45.380Z,4.5
2018-09-11T09:11:49.908Z,4.8
2018-09-11T09:11:54.549Z,4.7
2018-09-11T09:11:59.115Z,4.5
2018-09-11T09:12:03.629Z,3.9
2018-09-11T09:12:08.219Z,3.7
2018-09-11T09:12:12.747Z,4.2
2018-09-11T09:12:17.476Z,3.7
2018-09-11T09:12:22.039Z,3.6
2018-09-11T09:12:26.620Z,3.9
2018-09-11T09:12:31.199Z,4.2
2018-09-11T09:12:35.791Z,4.1
2018-09-11T09:12:41.341Z,4.5
2018-09-11T09:12:45.908Z,4.5
2018-09-11T09:12:50.460Z,4.1
2018-09-11T09:12:55.019Z,4.4
2018-09-11T09:12:59.620Z,4.5
2018-09-11T09:13:04.227Z,4.7
2018-09-11T09:13:08.740Z,4.4
2018-09-11T09:13:13.309Z,3.8
2018-09-11T09:13:17.907Z,3.9
2018-09-11T09:13:22.468Z,4.5
2018-09-11T09:13:27.027Z,5
2018-09-11T09:13:31.620Z,4.2
2018-09-11T09:13:36.147Z,4.6
2018-09-11T09:13:40.700Z,5
2018-09-11T09:13:45.300Z,5.2
2018-09-11T09:13:49.869Z,5.1
2018-09-11T09:13:54.463Z,4.3
2018-09-11T09:13:59.068Z,4.9
2018-09-11T09:14:03.641Z,4.9
2018-09-11T09:14:08.220Z,4.6
2018-09-11T09:14:12.789Z,4.6
2018-09-11T09:14:17.381Z,4.4
2018-09-11T09:14:21.980Z,5
2018-09-11T09:14:26.548Z,5.8
2018-09-11T09:14:31.108Z,6.1
2018-09-11T09:14:35.668Z,6.6
2018-09-11T09:14:40.220Z,6.7
2018-09-11T09:14:44.788Z,7.1
2018-09-11T09:14:49.348Z,7.9
2018-09-11T09:14:53.901Z,7.5
2018-09-11T09:14:59.430Z,6.8
2018-09-11T09:15:04.028Z,8.3
2018-09-11T09:15:08.550Z,7.7
2018-09-11T09:15:13.075Z,7.7
2018-09-11T09:15:17.668Z,7.6
2018-09-11T09:15:22.229Z,7.3
2018-09-11T09:15:26.806Z,6.6
2018-09-11T09:15:31.393Z,6
2018-09-11T09:15:35.990Z,4.7
2018-09-11T09:15:40.517Z,5.3
2018-09-11T09:15:45.251Z,4.5
2018-09-11T09:15:49.708Z,4.7
2018-09-11T09:15:54.271Z,4.7
2018-09-11T09:15:58.899Z,4.2
2018-09-11T09:16:03.550Z,4.7
2018-09-11T09:16:08.223Z,4.1
2018-09-11T09:16:12.830Z,4.2
2018-09-11T09:16:17.429Z,4.9
2018-09-11T09:16:21.990Z,4.4
2018-09-11T09:16:26.548Z,5.1
2018-09-11T09:16:31.192Z,4.7
2018-09-11T09:16:35.787Z,4.9
2018-09-11T09:16:41.348Z,5.3
2018-09-11T09:16:45.948Z,4.2
2018-09-11T09:16:50.547Z,4.9
2018-09-11T09:16:55.118Z,4.5
2018-09-11T09:16:59.698Z,4.3
2018-09-11T09:17:04.272Z,4.4
2018-09-11T09:17:08.868Z,4.8
2018-09-11T09:17:13.419Z,5.1
2018-09-11T09:17:18.061Z,5.7
2018-09-11T09:17:22.668Z,6.3
2018-09-11T09:17:27.274Z,6.4
2018-09-11T09:17:31.902Z,6.3
2018-09-11T09:17:36.500Z,6.6
2018-09-11T09:17:41.112Z,8
2018-09-11T09:17:45.790Z,8.6
2018-09-11T09:17:50.429Z,8.8
2018-09-11T09:17:55.031Z,7.8
2018-09-11T09:17:59.703Z,7.9
2018-09-11T09:18:04.269Z,7.8
2018-09-11T09:18:08.827Z,7.6
2018-09-11T09:18:13.501Z,5.7
2018-09-11T09:18:18.108Z,4.6
2018-09-11T09:18:22.701Z,4.9
2018-09-11T09:18:27.300Z,5
2018-09-11T09:18:31.869Z,5.2
2018-09-11T09:18:36.433Z,4.9
2018-09-11T09:18:41.060Z,4.7
2018-09-11T09:18:45.679Z,4.9
2018-09-11T09:18:50.227Z,4.8
2018-09-11T09:18:54.958Z,4.8
2018-09-11T09:18:59.470Z,5.7
2018-09-11T09:19:04.068Z,6
2018-09-11T09:19:08.796Z,5.5
2018-09-11T09:19:13.227Z,5.6
2018-09-11T09:19:18.781Z,6.4
2018-09-11T09:19:23.398Z,6.1
2018-09-11T09:19:27.955Z,5.8
2018-09-11T09:19:32.705Z,4.9
2018-09-11T09:19:37.275Z,4.5
2018-09-11T09:19:41.868Z,4.7
2018-09-11T09:19:46.468Z,3.9
2018-09-11T09:19:51.067Z,4.3
2018-09-11T09:19:55.628Z,4.4
2018-09-11T09:20:00.189Z,4.4
2018-09-11T09:20:05.740Z,4.7
2018-09-11T09:20:40.708Z,3.7
2018-09-11T09:20:46.436Z,3.4
2018-09-11T09:20:53.127Z,4.3
2018-09-11T09:20:59.014Z,4.4
2018-09-11T09:21:04.815Z,4.3
2018-09-11T09:21:10.477Z,3.8
2018-09-11T09:21:16.100Z,4.5
2018-09-11T09:21:32.192Z,6
2018-09-11T09:21:37.860Z,5.9
2018-09-11T09:21:43.589Z,4.9
2018-09-11T09:22:08.124Z,4.3
2018-09-11T09:22:13.908Z,4
2018-09-11T09:22:19.660Z,4.9
2018-09-11T09:22:25.467Z,4.3
2018-09-11T09:22:31.312Z,4.4
2018-09-11T09:22:37.068Z,5.6
2018-09-11T09:22:42.879Z,5.9
2018-09-11T09:22:48.620Z,6.6
2018-09-11T09:22:54.423Z,6.1
2018-09-11T09:23:00.182Z,6.4
2018-09-11T09:23:05.980Z,5.1
2018-09-11T09:23:12.790Z,4.4
2018-09-11T09:23:18.588Z,3.9
2018-09-11T09:23:24.299Z,3.6
2018-09-11T09:23:29.980Z,3.6
2018-09-11T09:23:35.780Z,3.6
2018-09-11T09:23:41.540Z,3.7
2018-09-11T09:23:47.255Z,3.7
2018-09-11T09:23:52.988Z,3.9
2018-09-11T09:23:58.746Z,4
2018-09-11T09:24:04.470Z,4.9
2018-09-11T09:24:10.230Z,4.9
2018-09-11T09:24:15.990Z,5.1
2018-09-11T09:24:21.836Z,4.4
2018-09-11T09:24:28.661Z,4.1
2018-09-11T09:24:34.422Z,3.4
2018-09-11T09:24:40.270Z,3.4
2018-09-11T09:24:45.990Z,4.7
2018-09-11T09:24:51.899Z,6
2018-09-11T09:24:57.593Z,6.2
2018-09-11T09:25:03.428Z,6.5
2018-09-11T09:25:09.229Z,6.7
2018-09-11T09:25:14.996Z,5.7
2018-09-11T09:25:20.860Z,4.6
2018-09-11T09:25:26.551Z,5.1
2018-09-11T09:25:32.377Z,5.3
2018-09-11T09:25:38.141Z,5.3
2018-09-11T09:25:43.901Z,5.1
2018-09-11T09:25:50.751Z,4.8
2018-09-11T09:25:56.510Z,5
2018-09-11T09:26:03.270Z,5
2018-09-11T09:26:08.998Z,4.3
2018-09-11T09:26:14.803Z,4.7
2018-09-11T09:26:20.593Z,5.8
2018-09-11T09:26:26.315Z,5.3
2018-09-11T09:26:32.029Z,4.9
2018-09-11T09:26:37.789Z,6.1
2018-09-11T09:26:43.521Z,6.4
2018-09-11T09:26:49.270Z,6
2018-09-11T09:26:54.951Z,5.3
2018-09-11T09:27:00.803Z,5.4
2018-09-11T09:27:06.521Z,5.1
2018-09-11T09:27:12.387Z,4.5
2018-09-11T09:27:18.069Z,4.4
2018-09-11T09:27:23.849Z,5.5
2018-09-11T09:27:29.654Z,7
2018-09-11T09:27:35.423Z,6.5
2018-09-11T09:27:41.151Z,7.4
2018-09-11T09:27:46.910Z,7.1
2018-09-11T09:27:53.632Z,8.1
2018-09-11T09:27:59.357Z,6.4
2018-09-11T09:28:05.072Z,6.8
2018-09-11T09:28:10.831Z,7
2018-09-11T09:28:16.560Z,8.1
2018-09-11T09:28:22.322Z,7.5
2018-09-11T09:28:28.071Z,8.1
2018-09-11T09:28:34.831Z,7.3
2018-09-11T09:28:40.592Z,6.9
2018-09-11T09:28:46.311Z,5.9
2018-09-11T09:28:52.081Z,7.2
2018-09-11T09:28:57.870Z,6.1
2018-09-11T09:29:03.629Z,7.2
2018-09-11T09:29:09.389Z,7.8
2018-09-11T09:29:15.151Z,8
2018-09-11T09:29:20.872Z,7
2018-09-11T09:29:26.633Z,7.7
2018-09-11T09:29:32.351Z,7.7
2018-09-11T09:29:38.192Z,5.5
2018-09-11T09:29:43.959Z,4.9
2018-09-11T09:29:49.709Z,4.7
2018-09-11T09:29:55.431Z,5
2018-09-11T09:30:01.153Z,4.9
2018-09-11T09:30:06.952Z,4.5
2018-09-11T09:30:12.673Z,4.7
2018-09-11T09:30:18.433Z,4.4
2018-09-11T09:30:24.160Z,3.8
2018-09-11T09:30:29.913Z,3.6
2018-09-11T09:30:35.629Z,3.8
2018-09-11T09:30:41.391Z,3.9
2018-09-11T09:30:47.159Z,4.3
2018-09-11T09:30:52.871Z,3.8
2018-09-11T09:30:58.623Z,6
2018-09-11T09:31:04.391Z,6
2018-09-11T09:31:11.416Z,6.1
2018-09-11T09:31:17.403Z,5.7
2018-09-11T09:31:23.178Z,6.4
2018-09-11T09:31:28.965Z,3.9
2018-09-11T09:31:34.981Z,4.4
2018-09-11T09:31:41.815Z,4.2
2018-09-11T09:31:47.451Z,4.2
2018-09-11T09:31:53.169Z,4.4
2018-09-11T09:31:59.039Z,4.7
2018-09-11T09:32:04.728Z,4.3
2018-09-11T09:32:10.392Z,4.2
2018-09-11T09:32:16.105Z,4.8
2018-09-11T09:32:21.828Z,4
2018-09-11T09:32:27.541Z,4.9
2018-09-11T09:32:33.204Z,4.9
2018-09-11T09:32:38.939Z,4.9
2018-09-11T09:32:44.660Z,4.7
2018-09-11T09:32:50.300Z,5.6
2018-09-11T09:32:55.944Z,5.4
2018-09-11T09:33:01.600Z,5.6
2018-09-11T09:33:07.323Z,5.5
2018-09-11T09:33:13.019Z,5.5
2018-09-11T09:33:18.713Z,4.9
2018-09-11T09:33:24.485Z,4.6
2018-09-11T09:33:30.248Z,4.3
2018-09-11T09:33:36.050Z,4.4
2018-09-11T09:33:41.716Z,4.4
2018-09-11T09:33:47.431Z,4.6
2018-09-11T09:33:53.146Z,5.8
2018-09-11T09:33:59.025Z,6
2018-09-11T09:34:04.806Z,5.8
2018-09-11T09:34:10.564Z,5.5
2018-09-11T09:34:16.410Z,4.9
2018-09-11T09:34:22.382Z,4.6
2018-09-11T09:34:28.491Z,4.5
2018-09-11T09:34:34.416Z,4.6
2018-09-11T09:34:40.323Z,5.1
2018-09-11T09:34:46.068Z,6
2018-09-11T09:34:51.946Z,6.2
2018-09-11T09:34:57.784Z,5.5
2018-09-11T09:35:03.642Z,5.8
2018-09-11T09:35:09.630Z,5.2
2018-09-11T09:35:15.489Z,4.5
2018-09-11T09:35:21.646Z,4.2
2018-09-11T09:35:27.425Z,4.2
2018-09-11T09:35:33.642Z,4.8
2018-09-11T09:35:39.292Z,5.2
2018-09-11T09:35:45.039Z,5
2018-09-11T09:35:50.838Z,5.3
2018-09-11T09:35:56.670Z,5.7
2018-09-11T09:36:02.802Z,5.1
2018-09-11T09:36:09.205Z,4.7
2018-09-11T09:36:14.957Z,5.3
2018-09-11T09:36:20.667Z,5
2018-09-11T09:36:26.383Z,4.5
2018-09-11T09:36:32.113Z,4.3
2018-09-11T09:36:37.782Z,5
2018-09-11T09:36:43.425Z,4.4
2018-09-11T09:36:49.157Z,5.2
2018-09-11T09:36:54.889Z,5.7
2018-09-11T09:37:01.615Z,4.8
2018-09-11T09:37:07.353Z,4.8
2018-09-11T09:37:12.942Z,4.9
2018-09-11T09:37:18.626Z,4.5
2018-09-11T09:37:24.349Z,4.4
2018-09-11T09:37:31.104Z,5.4
2018-09-11T09:37:37.064Z,5.6
2018-09-11T09:37:42.965Z,5.6
2018-09-11T09:37:48.680Z,5.7
2018-09-11T09:37:54.639Z,5.4
2018-09-11T09:38:00.386Z,6
2018-09-11T09:38:06.059Z,6.1
2018-09-11T09:38:11.777Z,6.4
2018-09-11T09:38:17.511Z,7.1
2018-09-11T09:38:23.214Z,6.7
2018-09-11T09:38:28.921Z,5.3
2018-09-11T09:38:34.702Z,4.9
2018-09-11T09:38:41.465Z,4.7
2018-09-11T09:38:47.134Z,4.1
2018-09-11T09:38:52.814Z,4.6
2018-09-11T09:38:58.518Z,5.4
2018-09-11T09:39:04.666Z,5.2
2018-09-11T09:39:10.444Z,5.1
2018-09-11T09:39:16.412Z,5.2
2018-09-11T09:39:22.143Z,4.9
2018-09-11T09:39:27.986Z,4.5
2018-09-11T09:39:33.692Z,4.4
2018-09-11T09:39:39.452Z,4
2018-09-11T09:39:45.210Z,3.9
2018-09-11T09:39:50.918Z,3.4
2018-09-11T09:39:56.668Z,3.5
2018-09-11T09:40:02.380Z,2.6
2018-09-11T09:40:08.089Z,3.1
2018-09-11T09:40:14.842Z,3
2018-09-11T09:40:21.562Z,3.6
2018-09-11T09:40:27.292Z,4.5
2018-09-11T09:40:33.011Z,4.9
2018-09-11T09:40:38.745Z,5.7
2018-09-11T09:40:44.508Z,5.8
2018-09-11T09:40:50.184Z,6
2018-09-11T09:40:55.902Z,5.6
2018-09-11T09:41:01.674Z,5
2018-09-11T09:41:07.431Z,4.1
2018-09-11T09:41:13.189Z,4.7
2018-09-11T09:41:18.914Z,4.2
2018-09-11T09:41:24.651Z,4.7
2018-09-11T09:41:31.356Z,5.2
2018-09-11T09:41:37.052Z,4.9
2018-09-11T09:41:42.786Z,4.5
2018-09-11T09:41:48.538Z,4.7
2018-09-11T09:41:54.266Z,4.6
2018-09-11T09:42:00.033Z,3.5
2018-09-11T09:42:05.733Z,4
2018-09-11T09:42:11.526Z,3.9
2018-09-11T09:42:17.251Z,4.1
2018-09-11T09:42:23.938Z,4.2
2018-09-11T09:42:29.670Z,4.7
2018-09-11T09:42:35.356Z,4.6
2018-09-11T09:42:41.132Z,5.2
2018-09-11T09:42:46.902Z,4.9
2018-09-11T09:42:52.638Z,4.8
2018-09-11T09:42:58.348Z,4.4
2018-09-11T09:43:04.030Z,4
2018-09-11T09:43:09.769Z,4
2018-09-11T09:43:15.455Z,4.5
2018-09-11T09:43:22.162Z,4.5
2018-09-11T09:43:27.904Z,4.7
2018-09-11T09:43:33.573Z,4.8
2018-09-11T09:43:39.271Z,4.1
2018-09-11T09:43:44.961Z,3.7
2018-09-11T09:43:50.757Z,4.5
2018-09-11T09:43:56.481Z,4.4
2018-09-11T09:44:02.238Z,4.2
2018-09-11T09:44:07.963Z,4.7
2018-09-11T09:44:13.590Z,5.1
2018-09-11T09:44:19.332Z,4.4
2018-09-11T09:44:25.053Z,4.7
2018-09-11T09:44:30.781Z,4.7
2018-09-11T09:44:36.473Z,4.4
2018-09-11T09:44:42.211Z,3.7
2018-09-11T09:44:48.898Z,3.6
2018-09-11T09:44:54.663Z,3.5
2018-09-11T09:45:00.388Z,3.8
2018-09-11T09:45:06.135Z,4
2018-09-11T09:45:11.859Z,3.6
2018-09-11T09:45:17.545Z,4.3
2018-09-11T09:45:23.300Z,4.4
2018-09-11T09:45:29.061Z,4.9
2018-09-11T09:45:34.767Z,5.2
2018-09-11T09:45:40.530Z,5.4
2018-09-11T09:45:46.300Z,5.6
2018-09-11T09:45:51.994Z,5.8
2018-09-11T09:45:57.766Z,4.4
2018-09-11T09:46:03.621Z,4.9
2018-09-11T09:46:09.380Z,4.7
2018-09-11T09:46:15.134Z,4.1
2018-09-11T09:46:20.827Z,3.9
2018-09-11T09:46:26.493Z,3.8
2018-09-11T09:46:33.226Z,4.1
2018-09-11T09:46:38.916Z,4.4
2018-09-11T09:46:44.680Z,4.9
2018-09-11T09:46:50.453Z,4.6
2018-09-11T09:46:56.175Z,4.9
2018-09-11T09:47:01.924Z,4.9
2018-09-11T09:47:08.640Z,4.3
2018-09-11T09:47:14.347Z,5.3
2018-09-11T09:47:20.076Z,5.7
2018-09-11T09:47:26.830Z,5.4
2018-09-11T09:47:32.535Z,5.6
2018-09-11T09:47:38.267Z,5.5
2018-09-11T09:47:43.974Z,4.1
2018-09-11T09:47:49.682Z,5.1
2018-09-11T09:47:55.618Z,5.5
2018-09-11T09:48:01.120Z,5.2
2018-09-11T09:48:06.844Z,5.2
2018-09-11T09:48:12.560Z,5.1
2018-09-11T09:48:18.260Z,5.7
2018-09-11T09:48:23.998Z,4.8
2018-09-11T09:48:30.740Z,5.3
2018-09-11T09:48:36.471Z,6.1
2018-09-11T09:48:42.242Z,6.4
2018-09-11T09:48:48.012Z,5.6
2018-09-11T09:48:53.737Z,6.8
2018-09-11T09:48:59.464Z,6.3
2018-09-11T09:49:05.185Z,6.1
2018-09-11T09:49:10.942Z,5.6
2018-09-11T09:49:16.677Z,4.9
2018-09-11T09:49:23.412Z,4.3
2018-09-11T09:49:29.132Z,4.5
2018-09-11T09:49:34.920Z,4.5
2018-09-11T09:49:40.628Z,3.9
2018-09-11T09:49:46.409Z,4.4
2018-09-11T09:49:52.131Z,4.5
2018-09-11T09:49:57.823Z,5.7
2018-09-11T09:50:03.596Z,5.5
2018-09-11T09:50:09.268Z,6.3
2018-09-11T09:50:14.951Z,7.1
2018-09-11T09:50:21.750Z,6.5
2018-09-11T09:50:27.452Z,5
2018-09-11T09:50:33.241Z,5.2
2018-09-11T09:50:38.991Z,4.4
2018-09-11T09:50:44.710Z,4.4
2018-09-11T09:50:50.378Z,4.1
2018-09-11T09:50:56.308Z,4.3
2018-09-11T09:51:01.867Z,4.4
2018-09-11T09:51:07.660Z,4.3
2018-09-11T09:51:13.365Z,3.8
2018-09-11T09:51:19.155Z,4.1
2018-09-11T09:51:24.921Z,3.9
2018-09-11T09:51:30.663Z,5.4
2018-09-11T09:51:36.497Z,6.1
2018-09-11T09:51:42.220Z,6
2018-09-11T09:51:47.946Z,5.5
2018-09-11T09:51:53.684Z,6.4
2018-09-11T09:51:59.416Z,5.7
2018-09-11T09:52:05.252Z,5.4
2018-09-11T15:01:24.272Z,5.8
2018-09-11T15:01:29.687Z,4.8
2018-09-11T15:01:35.065Z,4.5
2018-09-11T15:01:40.460Z,4.2
2018-09-11T15:01:45.843Z,4.4
2018-09-11T15:01:51.200Z,4.4
2018-09-11T15:01:56.673Z,4.7
2018-09-11T15:02:03.076Z,4.6
2018-09-11T15:02:08.903Z,4.6
2018-09-11T15:02:14.279Z,4.6
2018-09-11T15:02:19.715Z,3.8
2018-09-11T15:02:25.089Z,3.4
2018-09-11T15:02:30.556Z,3.9
2018-09-11T15:02:35.883Z,3.8
2018-09-11T15:02:41.254Z,4.2
2018-09-11T15:02:46.659Z,4
2018-09-11T15:02:52.065Z,4.2
2018-09-11T15:02:57.452Z,3.4
2018-09-11T15:03:02.868Z,3.5
2018-09-11T15:03:08.244Z,3.9
2018-09-11T15:03:13.637Z,3
2018-09-11T15:03:19.048Z,3.5
2018-09-11T15:03:24.449Z,4.3
2018-09-11T15:03:29.975Z,4.6
2018-09-11T15:03:35.385Z,4.7
2018-09-11T15:03:40.868Z,4.6
2018-09-11T15:03:46.562Z,4.8
2018-09-11T15:03:51.914Z,4.6
2018-09-11T15:03:57.321Z,4.4
2018-09-11T15:04:02.710Z,4.6
2018-09-11T15:04:08.143Z,4.3
2018-09-11T15:04:13.492Z,5.2
2018-09-11T15:04:18.888Z,5.1
2018-09-11T15:04:24.247Z,4.4
2018-09-11T15:04:29.632Z,4
2018-09-11T15:04:35.047Z,4.2
2018-09-11T15:04:41.802Z,3.8
2018-09-11T15:04:47.192Z,3.9
2018-09-11T15:04:52.549Z,4.4
2018-09-11T15:04:57.936Z,5.3
2018-09-11T15:05:03.322Z,5.2
2018-09-11T15:05:08.700Z,5.7
2018-09-11T15:05:14.078Z,5.1
2018-09-11T15:05:19.450Z,4.8
2018-09-11T15:05:24.842Z,5.2
2018-09-11T15:05:30.203Z,4.6
2018-09-11T15:05:35.567Z,4.9
2018-09-11T15:05:40.988Z,4.4
2018-09-11T15:05:46.600Z,4.3
2018-09-11T15:05:51.895Z,4.2
2018-09-11T15:05:58.265Z,5.3
2018-09-11T15:06:03.799Z,5.4
2018-09-11T15:06:09.177Z,6
2018-09-11T15:06:14.567Z,6.7
2018-09-11T15:06:19.921Z,7.6
2018-09-11T15:06:25.343Z,7.6
2018-09-11T15:06:30.762Z,7.1
2018-09-11T15:06:37.175Z,6.8
2018-09-11T15:06:42.538Z,6.5
2018-09-11T15:06:47.954Z,6.2
2018-09-11T15:06:53.314Z,8
2018-09-11T15:06:58.679Z,6.9
2018-09-11T15:07:04.049Z,6.6
2018-09-11T15:07:09.424Z,7.1
2018-09-11T15:07:15.787Z,6
2018-09-11T15:07:21.158Z,4.4
2018-09-11T15:07:26.517Z,3.9
2018-09-11T15:07:31.880Z,3.8
2018-09-11T15:07:37.248Z,3.7
2018-09-11T15:07:42.654Z,3.4
2018-09-11T15:07:48.016Z,4
2018-09-11T15:07:53.421Z,4.5
2018-09-11T15:07:58.836Z,5.3
2018-09-11T15:08:04.137Z,5.2
2018-09-11T15:08:09.508Z,4.8
2018-09-11T15:08:27.596Z,3.4
2018-09-11T15:08:41.958Z,3.1
2018-09-11T15:08:56.384Z,5.4
2018-09-11T15:09:10.771Z,6.3
2018-09-11T15:09:25.093Z,4.2
2018-09-11T15:09:39.460Z,3.9
2018-09-11T15:09:53.838Z,4.4
2018-09-11T15:10:08.198Z,3.7
2018-09-11T15:10:22.578Z,3.9
2018-09-11T15:10:36.960Z,4.8
2018-09-11T15:10:51.319Z,5.2
2018-09-11T15:11:05.837Z,5.5
2018-09-11T15:11:20.223Z,4.5
2018-09-11T15:11:34.590Z,3
2018-09-11T15:11:48.972Z,3.2
2018-09-11T15:12:03.350Z,3.8
2018-09-11T15:12:17.717Z,6.6
2018-09-11T15:12:32.086Z,6.7
2018-09-11T15:12:46.451Z,4.4
2018-09-11T15:13:00.819Z,4.3
2018-09-11T15:13:15.186Z,4.3
2018-09-11T15:13:29.562Z,4.2
2018-09-11T15:13:44.945Z,4.2
2018-09-11T15:13:59.413Z,6.2
2018-09-11T15:14:13.785Z,6.8
2018-09-11T15:14:28.179Z,8.1
2018-09-11T15:14:42.540Z,7.7
2018-09-11T15:14:56.931Z,5.3
2018-09-11T15:15:11.403Z,4.9
2018-09-11T15:15:25.736Z,4.8
2018-09-11T15:15:41.129Z,4.1
2018-09-11T15:15:56.476Z,4.7
2018-09-11T15:16:10.852Z,4.7
2018-09-11T15:16:25.216Z,5.7
2018-09-11T15:16:39.583Z,5.1
2018-09-11T15:16:54.003Z,4.9
2018-09-11T15:17:08.415Z,5.6
2018-09-11T15:17:35.224Z,6.1
2018-09-11T15:17:49.610Z,5.7
2018-09-11T15:18:03.993Z,4.8
2018-09-11T15:18:18.387Z,4.3
2018-09-11T15:18:32.763Z,5.6
2018-09-11T15:18:47.147Z,5.3
2018-09-11T15:19:01.513Z,4.8
2018-09-11T15:19:15.865Z,6.1
2018-09-11T15:19:30.220Z,5.2
2018-09-11T15:19:44.589Z,3.6
2018-09-11T15:19:58.968Z,3.3
2018-09-11T15:20:23.196Z,2.8
2018-09-11T15:20:38.654Z,4.6
2018-09-11T15:20:53.115Z,6.3
2018-09-11T15:21:07.595Z,5.2
2018-09-11T15:21:22.070Z,3.8
2018-09-11T15:21:36.536Z,4.5
2018-09-11T15:21:50.995Z,4.2
2018-09-11T15:22:05.526Z,4.3
2018-09-11T15:22:20.074Z,3.6
2018-09-11T15:22:34.594Z,3.6
2018-09-11T15:23:00.593Z,3.7
2018-09-11T15:23:15.049Z,6.2
2018-09-11T15:23:29.522Z,7
2018-09-11T15:23:43.997Z,5.3
2018-09-11T15:23:59.025Z,4.4
2018-09-11T15:24:13.498Z,5.6
2018-09-11T15:24:40.762Z,2.8
2018-09-11T15:24:55.220Z,3.9
2018-09-11T15:25:09.682Z,4.4
2018-09-11T15:25:24.137Z,4.3
2018-09-11T15:25:39.576Z,4
2018-09-11T15:25:54.038Z,3.9
2018-09-11T15:26:08.490Z,3.7
2018-09-11T15:26:22.954Z,5.6
2018-09-11T15:26:37.406Z,5.4
2018-09-11T15:26:51.916Z,4.1
2018-09-11T15:27:06.309Z,4.7
2018-09-11T15:27:20.762Z,5.4
2018-09-11T15:27:35.211Z,6.3
2018-09-11T15:27:49.668Z,6.2
2018-09-11T15:28:04.133Z,7.6
2018-09-11T15:28:18.597Z,7.7
2018-09-11T15:28:33.041Z,6.5
2018-09-11T15:28:47.500Z,5.4
2018-09-11T15:29:01.954Z,4.5
2018-09-11T15:29:16.412Z,4.2
2018-09-11T15:29:30.864Z,5.5
2018-09-11T15:29:45.422Z,5.1
2018-09-11T15:29:59.974Z,4.4
2018-09-11T15:30:14.337Z,5.8
2018-09-11T15:30:29.791Z,5.6
2018-09-11T15:30:44.288Z,4.8
2018-09-11T15:30:58.739Z,4
2018-09-11T15:31:13.252Z,3.9
2018-09-11T15:31:27.705Z,4.1
2018-09-11T15:31:42.214Z,5.3
2018-09-11T15:31:56.733Z,5.6
2018-09-11T15:32:11.190Z,6.2
2018-09-11T15:32:25.676Z,7.6
2018-09-11T15:32:40.140Z,7.1
2018-09-11T15:32:54.614Z,6.7
2018-09-11T15:33:09.177Z,5.7
2018-09-11T15:33:23.673Z,5.8
2018-09-11T15:33:38.140Z,6.5
2018-09-11T15:33:52.623Z,5.4
2018-09-11T15:34:08.106Z,7.3
2018-09-11T15:34:22.567Z,8.8
2018-09-11T15:34:37.049Z,6.9
2018-09-11T15:34:51.500Z,5.7
2018-09-11T15:35:05.950Z,5.3
2018-09-11T15:35:21.406Z,10.2
2018-09-11T15:35:35.857Z,13.3
2018-09-11T15:35:50.502Z,10.8
2018-09-11T15:36:05.011Z,7.2
2018-09-11T15:36:19.423Z,6.3
2018-09-11T15:36:33.872Z,8.2
2018-09-11T15:36:48.336Z,7.4
2018-09-11T15:37:02.784Z,6.9
2018-09-11T15:37:17.323Z,8.7
2018-09-11T15:37:31.860Z,10.2
2018-09-11T15:37:46.300Z,12.1
2018-09-11T15:38:00.788Z,11.6
2018-09-11T15:38:15.284Z,9.4
2018-09-11T15:38:29.772Z,8
2018-09-11T15:38:44.250Z,8.1
2018-09-11T15:38:58.817Z,7.7
2018-09-11T15:39:13.301Z,7.2